createdAt,value
2023-04-05T00:01:01.231Z,3.60
2023-04-05T00:03:30.367Z,3.60
2023-04-05T00:06:00.186Z,3.50
2023-04-05T00:08:29.589Z,3.60
2023-04-05T00:10:58.521Z,3.50
2023-04-05T00:13:25.711Z,3.50
2023-04-05T00:15:58.419Z,3.50
2023-04-05T00:18:26.062Z,3.50
2023-04-05T00:20:56.396Z,3.50
2023-04-05T00:23:26.540Z,3.50
2023-04-05T00:25:55.568Z,3.50
2023-04-05T00:28:23.083Z,3.40
2023-04-05T00:30:52.552Z,3.40
2023-04-05T00:33:19.448Z,3.50
2023-04-05T00:35:50.928Z,3.40
2023-04-05T00:40:49.441Z,3.40
2023-04-05T00:43:18.232Z,3.40
2023-04-05T00:45:45.006Z,4.80
2023-04-05T00:48:14.517Z,3.40
2023-04-05T00:50:43.339Z,3.30
2023-04-05T00:53:15.601Z,3.30
2023-04-05T00:55:42.328Z,3.30
2023-04-05T00:58:13.281Z,3.30
2023-04-05T01:00:42.936Z,3.30
2023-04-05T01:03:13.684Z,3.30
2023-04-05T01:06:12.019Z,3.30
2023-04-05T01:08:44.711Z,3.30
2023-04-05T01:11:13.398Z,3.10
2023-04-05T01:13:40.087Z,3.30
2023-04-05T01:16:12.643Z,3.30
2023-04-05T01:18:40.692Z,3.20
2023-04-05T01:21:40.147Z,3.20
2023-04-05T01:24:46.695Z,3.30
2023-04-05T01:27:21.148Z,3.20
2023-04-05T01:30:08.741Z,3.20
2023-04-05T01:32:41.531Z,3.20
2023-04-05T01:35:27.147Z,3.20
2023-04-05T01:38:02.531Z,3.20
2023-04-05T01:40:31.900Z,3.30
2023-04-05T01:43:02.211Z,3.10
2023-04-05T01:45:29.301Z,3.10
2023-04-05T01:47:56.201Z,3.10
2023-04-05T01:50:22.972Z,3.10
2023-04-05T01:52:49.687Z,3.10
2023-04-05T01:55:16.517Z,3.10
2023-04-05T01:57:45.407Z,3.00
2023-04-05T02:00:13.287Z,3.00
2023-04-05T02:02:40.380Z,3.00
2023-04-05T02:05:07.637Z,3.10
2023-04-05T02:07:36.775Z,3.00
2023-04-05T02:10:04.040Z,2.90
2023-04-05T02:12:31.068Z,2.90
2023-04-05T02:14:59.030Z,2.90
2023-04-05T02:17:25.862Z,3.00
2023-04-05T02:19:53.054Z,2.90
2023-04-05T02:22:19.831Z,2.90
2023-04-05T02:24:46.478Z,2.90
2023-04-05T02:27:13.163Z,2.90
2023-04-05T02:29:39.924Z,2.80
2023-04-05T02:32:06.663Z,2.70
2023-04-05T02:34:37.074Z,2.80
2023-04-05T02:37:03.826Z,2.80
2023-04-05T02:39:32.882Z,2.70
2023-04-05T02:42:02.066Z,2.80
2023-04-05T02:44:29.436Z,2.70
2023-04-05T02:46:56.073Z,2.60
2023-04-05T02:49:25.137Z,2.80
2023-04-05T02:51:51.912Z,2.60
2023-04-05T02:54:18.723Z,2.50
2023-04-05T02:56:46.337Z,2.50
2023-04-05T02:59:15.744Z,2.50
2023-04-05T03:01:45.445Z,2.50
2023-04-05T03:04:12.361Z,2.40
2023-04-05T03:06:39.303Z,2.40
2023-04-05T03:09:09.132Z,2.40
2023-04-05T03:11:37.977Z,2.40
2023-04-05T03:14:04.666Z,2.30
2023-04-05T03:16:34.474Z,2.30
2023-04-05T03:19:02.397Z,2.30
2023-04-05T03:21:32.164Z,2.20
2023-04-05T03:24:02.025Z,2.20
2023-04-05T03:26:28.708Z,2.20
2023-04-05T03:28:55.788Z,2.20
2023-04-05T03:31:22.644Z,2.20
2023-04-05T03:33:51.829Z,2.10
2023-04-05T03:36:19.802Z,2.10
2023-04-05T03:38:46.606Z,2.10
2023-04-05T03:43:45.140Z,2.00
2023-04-05T03:48:43.538Z,1.90
2023-04-05T03:51:10.194Z,1.80
2023-04-05T03:53:36.904Z,1.90
2023-04-05T03:56:06.302Z,1.90
2023-04-05T03:58:36.105Z,1.90
2023-04-05T04:01:06.657Z,1.90
2023-04-05T04:03:37.385Z,1.90
2023-04-05T04:06:07.416Z,1.90
2023-04-05T04:08:34.306Z,1.80
2023-04-05T04:11:01.479Z,1.80
2023-04-05T04:13:28.179Z,1.90
2023-04-05T04:15:54.853Z,1.70
2023-04-05T04:18:23.946Z,1.70
2023-04-05T04:20:52.754Z,1.70
2023-04-05T04:23:20.217Z,1.60
2023-04-05T04:25:54.612Z,1.80
2023-04-05T04:28:21.416Z,1.60
2023-04-05T04:30:50.471Z,1.60
2023-04-05T04:33:19.986Z,1.60
2023-04-05T04:35:47.179Z,1.60
2023-04-05T04:38:18.793Z,1.60
2023-04-05T04:40:50.880Z,1.60
2023-04-05T04:43:17.756Z,1.50
2023-04-05T04:45:48.647Z,1.50
2023-04-05T04:48:16.801Z,1.50
2023-04-05T04:50:47.534Z,1.50
2023-04-05T04:55:49.939Z,1.40
2023-04-05T04:58:17.317Z,1.40
2023-04-05T05:00:45.470Z,1.30
2023-04-05T05:03:12.736Z,1.30
2023-04-05T05:05:49.416Z,1.30
2023-04-05T05:08:18.829Z,1.30
2023-04-05T05:10:53.452Z,1.20
2023-04-05T05:13:20.289Z,1.30
2023-04-05T05:15:48.504Z,1.20
2023-04-05T05:18:17.786Z,1.40
2023-04-05T05:20:44.486Z,1.30
2023-04-05T05:23:11.342Z,1.30
2023-04-05T05:25:38.759Z,1.30
2023-04-05T05:28:07.887Z,1.30
2023-04-05T05:30:34.681Z,1.40
2023-04-05T05:35:29.166Z,1.40
2023-04-05T05:37:55.954Z,1.40
2023-04-05T05:40:22.655Z,1.40
2023-04-05T05:42:49.609Z,1.30
2023-04-05T05:45:16.288Z,1.30
2023-04-05T05:47:45.726Z,1.30
2023-04-05T05:52:43.831Z,1.50
2023-04-05T05:55:10.787Z,1.40
2023-04-05T05:57:38.755Z,1.40
2023-04-05T06:00:09.685Z,1.50
2023-04-05T06:02:38.855Z,1.80
2023-04-05T06:05:05.888Z,1.90
2023-04-05T06:07:36.433Z,1.80
2023-04-05T06:10:06.278Z,1.80
2023-04-05T06:12:35.845Z,1.90
2023-04-05T06:15:05.731Z,2.00
2023-04-05T06:17:34.132Z,2.10
2023-04-05T06:20:05.407Z,2.10
2023-04-05T06:22:33.650Z,2.20
2023-04-05T06:25:00.387Z,2.70
2023-04-05T06:27:27.061Z,2.30
2023-04-05T06:29:55.387Z,2.40
2023-04-05T06:32:22.211Z,2.40
2023-04-05T06:34:49.088Z,2.50
2023-04-05T06:37:16.002Z,2.60
2023-04-05T06:39:44.864Z,2.60
2023-04-05T06:42:13.815Z,2.70
2023-04-05T06:44:42.615Z,3.00
2023-04-05T06:47:09.319Z,2.70
2023-04-05T06:49:36.179Z,2.80
2023-04-05T06:52:05.812Z,2.70
2023-04-05T06:54:38.295Z,2.90
2023-04-05T06:57:07.195Z,2.90
2023-04-05T06:59:36.418Z,3.00
2023-04-05T07:02:05.432Z,3.30
2023-04-05T07:04:36.815Z,3.40
2023-04-05T07:07:06.673Z,3.60
2023-04-05T07:09:38.280Z,3.70
2023-04-05T07:12:07.614Z,3.80
2023-04-05T07:14:37.999Z,4.00
2023-04-05T07:17:06.326Z,4.20
2023-04-05T07:19:33.850Z,4.30
2023-04-05T07:24:28.313Z,4.70
2023-04-05T07:29:24.624Z,5.20
2023-04-05T07:31:51.384Z,5.40
2023-04-05T07:34:18.076Z,5.90
2023-04-05T07:36:47.261Z,6.00
2023-04-05T07:39:13.968Z,6.30
2023-04-05T07:41:42.389Z,6.60
2023-04-05T07:44:10.724Z,7.00
2023-04-05T07:46:38.524Z,7.30
2023-04-05T07:54:03.539Z,8.40
2023-04-05T07:56:30.740Z,8.70
2023-04-05T08:01:28.055Z,9.20
2023-04-05T08:06:24.665Z,10.00
2023-04-05T08:08:56.162Z,10.10
2023-04-05T08:11:26.439Z,10.70
2023-04-05T08:13:54.385Z,10.60
2023-04-05T08:16:25.907Z,10.90
2023-04-05T08:18:53.684Z,11.20
2023-04-05T08:21:20.745Z,12.00
2023-04-05T08:23:47.535Z,11.80
2023-04-05T08:26:21.578Z,12.10
2023-04-05T08:31:15.537Z,12.60
2023-04-05T08:33:42.320Z,12.90
2023-04-05T08:36:10.799Z,13.50
2023-04-05T08:38:37.491Z,13.20
2023-04-05T08:41:14.649Z,13.60
2023-04-05T08:43:52.903Z,13.60
2023-04-05T08:46:21.119Z,13.80
2023-04-05T08:51:21.816Z,14.20
2023-04-05T08:53:53.445Z,14.40
2023-04-05T08:56:28.191Z,14.60
2023-04-05T08:59:01.088Z,14.70
2023-04-05T09:01:30.992Z,14.90
2023-04-05T09:04:05.815Z,15.10
2023-04-05T09:06:33.560Z,15.30
2023-04-05T09:09:00.453Z,16.10
2023-04-05T09:11:27.919Z,15.60
2023-04-05T09:13:54.767Z,15.70
2023-04-05T09:16:24.870Z,16.00
2023-04-05T09:18:51.724Z,15.90
2023-04-05T09:21:19.362Z,16.10
2023-04-05T09:23:56.628Z,16.30
2023-04-05T09:26:24.925Z,16.40
2023-04-05T09:28:54.554Z,16.60
2023-04-05T09:31:37.046Z,16.70
2023-04-05T09:34:05.114Z,16.80
2023-04-05T09:36:35.514Z,16.90
2023-04-05T09:39:12.402Z,17.00
2023-04-05T09:41:41.886Z,17.20
2023-04-05T09:44:11.185Z,17.30
2023-04-05T09:49:10.215Z,17.70
2023-04-05T09:51:38.726Z,17.60
2023-04-05T09:54:10.008Z,17.70
2023-04-05T09:56:40.493Z,17.80
2023-04-05T09:59:11.765Z,17.90
2023-04-05T10:01:43.186Z,18.00
2023-04-05T10:04:12.334Z,18.10
2023-04-05T10:06:42.895Z,18.20
2023-04-05T10:09:15.228Z,18.30
2023-04-05T10:11:43.874Z,18.40
2023-04-05T10:14:10.685Z,18.50
2023-04-05T10:16:48.023Z,18.70
2023-04-05T10:19:26.399Z,18.80
2023-04-05T10:21:57.340Z,18.70
2023-04-05T10:24:36.548Z,18.90
2023-04-05T10:27:12.675Z,19.00
2023-04-05T10:29:53.176Z,19.10
2023-04-05T10:32:38.660Z,19.20
2023-04-05T10:35:28.979Z,19.20
2023-04-05T10:38:24.555Z,19.30
2023-04-05T10:40:57.339Z,19.40
2023-04-05T10:43:27.147Z,19.30
2023-04-05T10:45:58.084Z,19.40
2023-04-05T10:48:49.897Z,19.50
2023-04-05T10:51:16.908Z,19.60
2023-04-05T10:53:46.112Z,19.60
2023-04-05T10:56:13.439Z,19.60
2023-04-05T10:58:42.367Z,19.60
2023-04-05T11:01:10.386Z,19.60
2023-04-05T11:03:47.852Z,19.60
2023-04-05T11:06:31.997Z,19.60
2023-04-05T11:09:10.744Z,19.70
2023-04-05T11:11:42.246Z,19.70
2023-04-05T11:14:37.522Z,19.90
2023-04-05T11:17:06.816Z,19.90
2023-04-05T11:19:42.946Z,20.00
2023-04-05T11:22:13.201Z,20.00
2023-04-05T11:25:04.996Z,20.10
2023-04-05T11:27:34.040Z,20.30
2023-04-05T11:30:02.149Z,20.20
2023-04-05T11:32:47.045Z,20.30
2023-04-05T11:35:28.367Z,20.10
2023-04-05T11:38:03.456Z,20.40
2023-04-05T11:40:32.305Z,20.30
2023-04-05T11:43:05.944Z,20.40
2023-04-05T11:45:37.109Z,20.50
2023-04-05T11:48:14.393Z,20.60
2023-04-05T11:50:42.042Z,20.60
2023-04-05T11:53:10.935Z,20.60
2023-04-05T11:55:39.322Z,20.70
2023-04-05T11:58:19.316Z,20.70
2023-04-05T12:00:47.004Z,20.70
2023-04-05T12:03:17.661Z,20.80
2023-04-05T12:05:57.395Z,20.80
2023-04-05T12:08:37.281Z,20.90
2023-04-05T12:11:07.768Z,21.10
2023-04-05T12:16:09.354Z,21.10
2023-04-05T12:18:38.763Z,21.20
2023-04-05T12:21:09.878Z,21.30
2023-04-05T12:23:37.218Z,21.40
2023-04-05T12:26:06.421Z,21.40
2023-04-05T12:28:58.457Z,21.50
2023-04-05T12:31:39.257Z,21.50
2023-04-05T12:34:06.356Z,21.60
2023-04-05T12:36:33.438Z,21.60
2023-04-05T12:39:01.465Z,21.60
2023-04-05T12:41:31.632Z,21.60
2023-04-05T12:44:01.791Z,21.50
2023-04-05T12:46:45.243Z,21.60
2023-04-05T12:49:16.046Z,21.40
2023-04-05T12:51:48.764Z,21.50
2023-04-05T12:54:22.125Z,21.40
2023-04-05T12:56:56.539Z,21.40
2023-04-05T12:59:23.877Z,21.40
2023-04-05T13:01:51.236Z,21.30
2023-04-05T13:04:18.283Z,21.20
2023-04-05T13:09:14.663Z,21.20
2023-04-05T13:11:41.377Z,21.20
2023-04-05T13:14:08.596Z,21.00
2023-04-05T13:16:35.476Z,21.00
2023-04-05T13:19:02.709Z,21.00
2023-04-05T13:21:32.859Z,20.90
2023-04-05T13:23:59.635Z,20.90
2023-04-05T13:26:26.334Z,20.80
2023-04-05T13:28:53.104Z,20.70
2023-04-05T13:31:19.946Z,20.50
2023-04-05T13:33:46.738Z,20.50
2023-04-05T13:36:15.877Z,20.40
2023-04-05T13:38:42.697Z,20.30
2023-04-05T13:41:09.658Z,20.20
2023-04-05T13:43:36.394Z,20.10
2023-04-05T13:46:03.491Z,20.10
2023-04-05T13:48:30.253Z,20.00
2023-04-05T13:51:01.955Z,20.00
2023-04-05T13:53:28.890Z,20.00
2023-04-05T13:55:55.821Z,20.10
2023-04-05T13:58:25.390Z,20.00
2023-04-05T14:00:54.917Z,20.00
2023-04-05T14:03:21.762Z,20.00
2023-04-05T14:05:50.718Z,20.00
2023-04-05T14:08:23.171Z,20.00
2023-04-05T14:10:50.010Z,20.00
2023-04-05T14:13:21.505Z,20.20
2023-04-05T14:15:48.948Z,20.20
2023-04-05T14:18:17.968Z,20.20
2023-04-05T14:20:44.879Z,20.20
2023-04-05T14:23:11.674Z,20.20
2023-04-05T14:25:40.951Z,20.10
2023-04-05T14:33:03.532Z,20.20
2023-04-05T14:35:33.008Z,20.20
2023-04-05T14:37:59.818Z,20.30
2023-04-05T14:40:28.892Z,20.20
2023-04-05T14:45:29.970Z,20.20
2023-04-05T14:47:56.783Z,20.10
2023-04-05T14:50:23.670Z,20.10
2023-04-05T14:52:52.914Z,20.10
2023-04-05T14:55:21.970Z,20.00
2023-04-05T14:57:48.859Z,20.10
2023-04-05T15:00:16.239Z,20.00
2023-04-05T15:02:45.744Z,19.80
2023-04-05T15:05:12.874Z,19.60
2023-04-05T15:07:39.582Z,19.50
2023-04-05T15:10:08.744Z,19.40
2023-04-05T15:12:35.671Z,19.40
2023-04-05T15:15:05.207Z,19.40
2023-04-05T15:17:34.178Z,19.40
2023-04-05T15:20:01.101Z,19.50
2023-04-05T15:22:30.293Z,19.60
2023-04-05T15:27:26.042Z,19.60
2023-04-05T15:29:55.398Z,19.60
2023-04-05T15:32:30.068Z,19.60
2023-04-05T15:34:57.910Z,19.60
2023-04-05T15:37:24.622Z,19.70
2023-04-05T15:39:51.379Z,19.70
2023-04-05T15:42:21.691Z,19.80
2023-04-05T15:44:49.635Z,19.90
2023-04-05T15:47:19.548Z,19.90
2023-04-05T15:49:46.324Z,19.90
2023-04-05T15:52:13.277Z,19.90
2023-04-05T15:54:44.206Z,20.00
2023-04-05T15:57:13.795Z,20.00
2023-04-05T15:59:42.893Z,19.80
2023-04-05T16:02:09.819Z,19.60
2023-04-05T16:04:36.621Z,19.30
2023-04-05T16:09:32.681Z,19.10
2023-04-05T16:12:01.708Z,19.00
2023-04-05T16:14:28.583Z,19.00
2023-04-05T16:16:57.817Z,19.00
2023-04-05T16:19:27.239Z,18.90
2023-04-05T16:24:21.606Z,18.50
2023-04-05T16:26:50.737Z,18.30
2023-04-05T16:29:17.829Z,18.20
2023-04-05T16:31:47.275Z,18.10
2023-04-05T16:34:14.342Z,17.90
2023-04-05T16:36:41.812Z,17.90
2023-04-05T16:39:08.853Z,17.80
2023-04-05T16:41:36.302Z,17.60
2023-04-05T16:44:03.664Z,17.50
2023-04-05T16:46:32.207Z,17.20
2023-04-05T16:49:04.905Z,17.00
2023-04-05T16:51:33.748Z,16.70
2023-04-05T16:54:02.686Z,16.50
2023-04-05T16:56:29.512Z,16.30
2023-04-05T16:58:58.677Z,16.10
2023-04-05T17:01:27.808Z,15.90
2023-04-05T17:03:54.582Z,15.70
2023-04-05T17:06:23.770Z,15.50
2023-04-05T17:08:55.683Z,15.40
2023-04-05T17:11:22.603Z,15.30
2023-04-05T17:13:49.686Z,15.20
2023-04-05T17:16:16.750Z,15.20
2023-04-05T17:18:43.648Z,15.20
2023-04-05T17:21:12.658Z,15.00
2023-04-05T17:23:42.120Z,14.90
2023-04-05T17:26:08.984Z,14.80
2023-04-05T17:28:35.930Z,14.60
2023-04-05T17:31:06.074Z,14.50
2023-04-05T17:33:35.302Z,14.40
2023-04-05T17:36:04.451Z,14.20
2023-04-05T17:38:31.690Z,14.10
2023-04-05T17:40:59.329Z,13.90
2023-04-05T17:43:28.389Z,13.70
2023-04-05T17:45:55.143Z,13.60
2023-04-05T17:48:24.177Z,13.40
2023-04-05T17:50:51.051Z,13.30
2023-04-05T17:53:17.868Z,13.10
2023-04-05T17:55:44.947Z,13.00
2023-04-05T17:58:14.286Z,12.80
2023-04-05T18:00:41.213Z,12.70
2023-04-05T18:03:08.765Z,12.50
2023-04-05T18:05:36.071Z,12.30
2023-04-05T18:08:02.871Z,12.30
2023-04-05T18:18:01.836Z,11.90
2023-04-05T18:20:28.607Z,11.70
2023-04-05T18:23:00.559Z,11.60
2023-04-05T18:25:28.832Z,11.40
2023-04-05T18:27:56.103Z,11.20
2023-04-05T18:30:22.954Z,11.30
2023-04-05T18:32:51.099Z,10.90
2023-04-05T18:35:17.938Z,10.80
2023-04-05T18:37:44.722Z,10.60
2023-04-05T18:40:20.671Z,10.50
2023-04-05T18:42:47.605Z,10.30
2023-04-05T18:45:14.392Z,10.30
2023-04-05T18:47:43.726Z,10.10
2023-04-05T18:50:13.344Z,10.00
2023-04-05T18:52:40.341Z,9.90
2023-04-05T18:55:08.344Z,9.80
2023-04-05T18:57:35.454Z,9.70
2023-04-05T19:00:03.173Z,9.60
2023-04-05T19:02:30.227Z,9.50
2023-04-05T19:04:57.230Z,9.40
2023-04-05T19:07:24.049Z,9.40
2023-04-05T19:09:50.877Z,9.30
2023-04-05T19:12:17.558Z,9.20
2023-04-05T19:14:44.453Z,9.10
2023-04-05T19:17:11.320Z,8.90
2023-04-05T19:19:38.100Z,8.80
2023-04-05T19:22:04.907Z,8.80
2023-04-05T19:26:58.830Z,8.60
2023-04-05T19:29:25.798Z,8.50
2023-04-05T19:31:54.618Z,8.50
2023-04-05T19:34:23.671Z,8.40
2023-04-05T19:36:50.435Z,8.30
2023-04-05T19:39:17.248Z,8.20
2023-04-05T19:41:44.097Z,8.10
2023-04-05T19:44:14.084Z,8.10
2023-04-05T19:46:41.255Z,8.10
2023-04-05T19:49:27.635Z,7.90
2023-04-05T19:51:56.825Z,7.80
2023-04-05T19:54:28.958Z,7.70
2023-04-05T19:56:58.067Z,7.70
2023-04-05T19:59:33.207Z,7.60
2023-04-05T20:02:01.360Z,7.30
2023-04-05T20:04:34.449Z,7.50
2023-04-05T20:07:02.998Z,7.40
2023-04-05T20:09:30.343Z,7.40
2023-04-05T20:12:01.950Z,7.30
2023-04-05T20:14:33.043Z,7.40
2023-04-05T20:16:59.933Z,7.20
2023-04-05T20:19:31.372Z,7.70
2023-04-05T20:22:07.564Z,7.10
2023-04-05T20:24:36.902Z,7.20
2023-04-05T20:27:06.712Z,7.00
2023-04-05T20:29:33.687Z,6.90
2023-04-05T20:32:01.879Z,7.00
2023-04-05T20:34:31.634Z,7.00
2023-04-05T20:37:02.177Z,7.00
2023-04-05T20:39:32.365Z,6.90
2023-04-05T20:41:59.504Z,6.80
2023-04-05T20:44:26.654Z,6.80
2023-04-05T20:46:57.709Z,6.80
2023-04-05T20:49:24.863Z,6.70
2023-04-05T20:51:51.885Z,6.50
2023-04-05T20:54:19.703Z,6.60
2023-04-05T20:56:46.774Z,6.50
2023-04-05T20:59:14.591Z,7.30
2023-04-05T21:01:45.877Z,6.40
2023-04-05T21:04:12.565Z,6.40
2023-04-05T21:06:42.317Z,6.30
2023-04-05T21:09:09.436Z,6.30
2023-04-05T21:11:36.587Z,6.10
2023-04-05T21:14:03.390Z,6.20
2023-04-05T21:16:32.418Z,6.10
2023-04-05T21:19:01.629Z,6.30
2023-04-05T21:21:31.184Z,6.10
2023-04-05T21:23:57.968Z,6.00
2023-04-05T21:26:24.669Z,6.10
2023-04-05T21:28:51.428Z,6.20
2023-04-05T21:31:20.325Z,6.10
2023-04-05T21:33:49.223Z,5.90
2023-04-05T21:36:16.006Z,5.80
2023-04-05T21:38:45.327Z,5.80
2023-04-05T21:41:12.090Z,6.00
2023-04-05T21:43:41.277Z,5.70
2023-04-05T21:46:08.116Z,5.70
2023-04-05T21:48:34.928Z,5.60
2023-04-05T21:51:01.682Z,6.00
2023-04-05T21:53:28.440Z,5.60
2023-04-05T21:55:57.344Z,5.50
2023-04-05T21:58:28.715Z,5.50
2023-04-05T22:01:00.305Z,5.40
2023-04-05T22:03:27.202Z,5.40
2023-04-05T22:05:53.984Z,5.30
2023-04-05T22:08:20.937Z,5.30
2023-04-05T22:10:47.930Z,5.70
2023-04-05T22:13:14.745Z,5.30
2023-04-05T22:15:41.581Z,5.20
2023-04-05T22:18:08.888Z,5.40
2023-04-05T22:20:35.781Z,5.10
2023-04-05T22:23:04.731Z,5.10
2023-04-05T22:25:33.743Z,4.80
2023-04-05T22:28:05.097Z,5.40
2023-04-05T22:30:42.901Z,5.00
2023-04-05T22:33:13.714Z,4.90
2023-04-05T22:35:41.797Z,4.80
2023-04-05T22:38:10.979Z,5.40
2023-04-05T22:40:39.859Z,4.80
2023-04-05T22:43:06.936Z,5.00
2023-04-05T22:45:36.157Z,4.70
2023-04-05T22:48:08.261Z,5.00
2023-04-05T22:50:35.093Z,6.90
2023-04-05T22:53:01.785Z,4.80
2023-04-05T22:55:28.702Z,4.60
2023-04-05T22:57:55.476Z,4.60
2023-04-05T23:02:53.870Z,4.60
2023-04-05T23:05:25.406Z,4.40
2023-04-05T23:07:55.692Z,4.40
2023-04-05T23:10:24.967Z,4.40
2023-04-05T23:12:51.683Z,4.90
2023-04-05T23:15:21.253Z,4.30
2023-04-05T23:17:49.623Z,4.30
2023-04-05T23:20:16.602Z,4.20
2023-04-05T23:22:43.364Z,4.20
2023-04-05T23:25:12.419Z,4.90
2023-04-05T23:27:39.163Z,4.20
2023-04-05T23:30:07.243Z,4.10
2023-04-05T23:32:34.028Z,4.10
2023-04-05T23:35:03.321Z,4.00
2023-04-05T23:37:32.434Z,4.10
2023-04-05T23:40:01.575Z,4.00
2023-04-05T23:42:28.316Z,3.90
2023-04-05T23:44:57.590Z,3.90
2023-04-05T23:47:26.786Z,3.70
2023-04-05T23:49:53.521Z,3.80
2023-04-05T23:52:22.640Z,3.70
2023-04-05T23:54:49.315Z,3.80
2023-04-05T23:57:18.209Z,3.70
2023-04-05T23:59:45.009Z,3.70
